createdAt,value
2019-03-09T00:00:49.101Z,88.57
2019-03-09T00:01:49.050Z,88.47
2019-03-09T00:02:48.999Z,88.47
2019-03-09T00:03:48.930Z,88.76
2019-03-09T00:04:48.910Z,88.38
2019-03-09T00:05:48.827Z,88.19
2019-03-09T00:06:48.774Z,88.38
2019-03-09T00:07:48.718Z,88.38
2019-03-09T00:08:48.656Z,88.57
2019-03-09T00:09:48.632Z,88.57
2019-03-09T00:10:48.552Z,88.19
2019-03-09T00:11:48.495Z,88.85
2019-03-09T00:12:48.444Z,88.47
2019-03-09T00:13:48.379Z,88.00
2019-03-09T00:14:48.357Z,88.00
2019-03-09T00:15:48.285Z,88.47
2019-03-09T00:16:48.226Z,88.19
2019-03-09T00:17:48.187Z,89.52
2019-03-09T00:18:48.105Z,87.81
2019-03-09T00:19:48.178Z,88.19
2019-03-09T00:20:48.021Z,88.38
2019-03-09T00:21:47.943Z,88.85
2019-03-09T00:22:47.895Z,88.85
2019-03-09T00:23:47.836Z,88.57
2019-03-09T00:24:47.777Z,89.61
2019-03-09T00:25:47.753Z,88.85
2019-03-09T00:26:47.681Z,89.23
2019-03-09T00:27:47.612Z,88.85
2019-03-09T00:28:47.561Z,89.42
2019-03-09T00:29:47.523Z,89.52
2019-03-09T00:30:47.469Z,89.28
2019-03-09T00:31:47.396Z,89.09
2019-03-09T00:32:47.341Z,89.33
2019-03-09T00:33:47.297Z,89.71
2019-03-09T00:34:47.240Z,89.09
2019-03-09T00:35:47.196Z,90.28
2019-03-09T00:36:47.116Z,90.05
2019-03-09T00:37:47.075Z,89.57
2019-03-09T00:38:47.017Z,89.57
2019-03-09T00:39:46.948Z,90.42
2019-03-09T00:40:46.942Z,89.00
2019-03-09T00:41:46.852Z,89.09
2019-03-09T00:42:46.795Z,89.90
2019-03-09T00:43:46.737Z,89.76
2019-03-09T00:44:46.685Z,89.19
2019-03-09T00:45:46.660Z,89.61
2019-03-09T00:46:46.569Z,90.33
2019-03-09T00:47:46.517Z,90.23
2019-03-09T00:48:46.490Z,89.38
2019-03-09T00:49:46.417Z,88.67
2019-03-09T00:50:46.378Z,89.42
2019-03-09T00:51:46.305Z,90.19
2019-03-09T00:52:46.243Z,89.23
2019-03-09T00:53:46.188Z,89.04
2019-03-09T00:54:46.135Z,89.42
2019-03-09T00:55:46.099Z,89.23
2019-03-09T00:56:46.033Z,89.33
2019-03-09T00:57:45.969Z,89.23
2019-03-09T00:58:45.919Z,89.42
2019-03-09T00:59:45.865Z,88.19
2019-03-09T01:00:45.828Z,89.42
2019-03-09T01:01:45.751Z,89.33
2019-03-09T01:02:45.698Z,89.14
2019-03-09T01:03:45.645Z,89.23
2019-03-09T01:04:45.592Z,89.52
2019-03-09T01:05:45.558Z,89.52
2019-03-09T01:06:45.484Z,89.61
2019-03-09T01:07:45.419Z,89.14
2019-03-09T01:08:45.364Z,89.52
2019-03-09T01:09:45.319Z,89.23
2019-03-09T01:10:45.285Z,89.42
2019-03-09T01:11:45.220Z,90.14
2019-03-09T01:12:45.149Z,89.71
2019-03-09T01:13:45.086Z,89.76
2019-03-09T01:14:45.043Z,89.38
2019-03-09T01:15:45.004Z,89.57
2019-03-09T01:16:44.932Z,90.28
2019-03-09T01:17:44.868Z,89.52
2019-03-09T01:18:44.821Z,89.23
2019-03-09T01:19:44.768Z,89.61
2019-03-09T01:20:44.730Z,89.23
2019-03-09T01:21:44.659Z,89.71
2019-03-09T01:22:44.600Z,89.90
2019-03-09T01:23:44.541Z,89.42
2019-03-09T01:24:44.489Z,89.33
2019-03-09T01:25:44.478Z,89.52
2019-03-09T01:26:44.378Z,89.52
2019-03-09T01:27:44.333Z,89.61
2019-03-09T01:28:44.269Z,89.33
2019-03-09T01:29:44.216Z,89.33
2019-03-09T01:30:44.175Z,89.23
2019-03-09T01:31:44.133Z,88.19
2019-03-09T01:32:44.053Z,89.23
2019-03-09T01:33:44.004Z,88.85
2019-03-09T01:34:43.948Z,89.61
2019-03-09T01:35:43.881Z,88.67
2019-03-09T01:36:43.857Z,89.33
2019-03-09T01:37:43.776Z,89.61
2019-03-09T01:38:43.730Z,89.23
2019-03-09T01:39:43.672Z,89.80
2019-03-09T01:40:43.609Z,89.23
2019-03-09T01:41:43.579Z,88.76
2019-03-09T01:42:43.515Z,89.14
2019-03-09T01:43:43.453Z,90.00
2019-03-09T01:44:43.388Z,89.47
2019-03-09T01:45:43.341Z,89.23
2019-03-09T01:46:43.317Z,90.75
2019-03-09T01:47:43.228Z,89.52
2019-03-09T01:48:43.172Z,89.19
2019-03-09T01:49:43.119Z,90.05
2019-03-09T01:50:43.071Z,90.14
2019-03-09T01:51:43.029Z,90.80
2019-03-09T01:52:42.948Z,89.67
2019-03-09T01:53:42.897Z,90.14
2019-03-09T01:54:42.852Z,89.67
2019-03-09T01:55:42.779Z,89.95
2019-03-09T01:56:42.755Z,89.86
2019-03-09T01:57:42.676Z,90.14
2019-03-09T01:58:42.627Z,89.19
2019-03-09T01:59:42.572Z,89.86
2019-03-09T02:00:42.510Z,90.14
2019-03-09T02:01:42.488Z,89.47
2019-03-09T02:02:42.407Z,89.38
2019-03-09T02:03:42.349Z,89.19
2019-03-09T02:04:42.289Z,89.95
2019-03-09T02:05:42.249Z,89.19
2019-03-09T02:06:42.206Z,89.28
2019-03-09T02:07:42.137Z,89.38
2019-03-09T02:08:42.089Z,89.19
2019-03-09T02:09:42.021Z,89.19
2019-03-09T02:10:41.960Z,89.19
2019-03-09T02:11:41.933Z,89.38
2019-03-09T02:12:41.855Z,88.71
2019-03-09T02:13:41.797Z,88.53
2019-03-09T02:14:41.744Z,88.53
2019-03-09T02:15:41.690Z,88.34
2019-03-09T02:16:41.657Z,88.53
2019-03-09T02:17:41.577Z,88.43
2019-03-09T02:18:41.525Z,88.71
2019-03-09T02:19:41.471Z,88.24
2019-03-09T02:20:41.415Z,88.43
2019-03-09T02:21:41.382Z,88.24
2019-03-09T02:22:41.297Z,87.95
2019-03-09T02:23:41.248Z,87.57
2019-03-09T02:24:41.184Z,87.67
2019-03-09T02:25:41.138Z,87.86
2019-03-09T02:26:41.117Z,87.19
2019-03-09T02:27:41.023Z,87.10
2019-03-09T02:28:40.964Z,87.19
2019-03-09T02:29:40.918Z,87.29
2019-03-09T02:30:40.858Z,87.48
2019-03-09T02:31:40.803Z,87.19
2019-03-09T02:32:40.776Z,86.91
2019-03-09T02:33:40.692Z,86.43
2019-03-09T02:34:40.635Z,86.82
2019-03-09T02:35:40.593Z,86.72
2019-03-09T02:36:40.532Z,86.72
2019-03-09T02:37:40.548Z,86.34
2019-03-09T02:38:40.417Z,86.53
2019-03-09T02:39:40.362Z,86.34
2019-03-09T02:40:40.307Z,85.96
2019-03-09T02:41:40.258Z,86.05
2019-03-09T02:42:40.231Z,85.96
2019-03-09T02:43:40.159Z,85.68
2019-03-09T02:44:40.092Z,86.15
2019-03-09T02:45:40.034Z,86.43
2019-03-09T02:46:39.983Z,86.05
2019-03-09T02:47:39.956Z,85.68
2019-03-09T02:48:39.871Z,85.77
2019-03-09T02:49:39.814Z,85.39
2019-03-09T02:50:39.761Z,85.20
2019-03-09T02:51:39.699Z,85.39
2019-03-09T02:52:39.669Z,85.11
2019-03-09T02:53:39.590Z,85.01
2019-03-09T02:54:39.535Z,84.82
2019-03-09T02:55:39.491Z,85.39
2019-03-09T02:56:39.429Z,85.11
2019-03-09T02:57:39.397Z,84.63
2019-03-09T02:58:39.323Z,85.68
2019-03-09T02:59:39.264Z,84.91
2019-03-09T03:00:39.211Z,84.82
2019-03-09T03:01:39.152Z,85.11
2019-03-09T03:02:39.124Z,84.63
2019-03-09T03:03:39.044Z,84.72
2019-03-09T03:04:38.989Z,84.82
2019-03-09T03:05:38.929Z,84.91
2019-03-09T03:06:38.881Z,84.53
2019-03-09T03:07:38.921Z,84.44
2019-03-09T03:08:38.764Z,84.25
2019-03-09T03:09:38.711Z,84.06
2019-03-09T03:10:38.672Z,83.97
2019-03-09T03:11:38.600Z,83.68
2019-03-09T03:12:38.574Z,83.68
2019-03-09T03:13:38.487Z,83.59
2019-03-09T03:14:38.429Z,83.30
2019-03-09T03:15:38.388Z,83.20
2019-03-09T03:16:38.341Z,83.20
2019-03-09T03:17:38.289Z,83.01
2019-03-09T03:18:38.214Z,83.39
2019-03-09T03:19:38.163Z,83.20
2019-03-09T03:20:38.102Z,83.11
2019-03-09T03:21:38.041Z,83.20
2019-03-09T03:22:38.027Z,83.11
2019-03-09T03:23:37.936Z,83.30
2019-03-09T03:24:37.872Z,82.73
2019-03-09T03:25:37.835Z,82.73
2019-03-09T03:26:37.776Z,83.01
2019-03-09T03:27:37.711Z,82.73
2019-03-09T03:28:37.683Z,82.07
2019-03-09T03:29:37.609Z,82.16
2019-03-09T03:30:37.549Z,82.16
2019-03-09T03:31:37.491Z,81.59
2019-03-09T03:32:37.451Z,81.97
2019-03-09T03:33:37.434Z,81.97
2019-03-09T03:34:37.328Z,81.97
2019-03-09T03:35:37.271Z,81.49
2019-03-09T03:36:37.216Z,81.40
2019-03-09T03:37:37.171Z,81.02
2019-03-09T03:38:37.121Z,81.30
2019-03-09T03:39:37.048Z,80.64
2019-03-09T03:40:37.003Z,80.26
2019-03-09T03:41:36.946Z,79.79
2019-03-09T03:42:36.892Z,79.97
2019-03-09T03:43:36.856Z,79.50
2019-03-09T03:44:36.778Z,79.50
2019-03-09T03:45:36.721Z,79.22
2019-03-09T03:46:36.664Z,78.93
2019-03-09T03:47:36.607Z,78.64
2019-03-09T03:48:36.584Z,78.64
2019-03-09T03:49:36.501Z,78.08
2019-03-09T03:50:36.453Z,77.79
2019-03-09T03:51:36.397Z,77.79
2019-03-09T03:52:36.338Z,77.31
2019-03-09T03:53:36.300Z,77.41
2019-03-09T03:54:36.225Z,76.65
2019-03-09T03:55:36.172Z,76.84
2019-03-09T03:56:36.108Z,76.46
2019-03-09T03:57:36.062Z,75.99
2019-03-09T03:58:36.029Z,75.60
2019-03-09T03:59:35.947Z,75.99
2019-03-09T04:00:35.888Z,75.60
2019-03-09T04:01:35.829Z,75.04
2019-03-09T04:02:35.788Z,74.47
2019-03-09T04:03:35.753Z,74.56
2019-03-09T04:04:35.668Z,74.18
2019-03-09T04:05:35.611Z,73.61
2019-03-09T04:06:35.563Z,73.61
2019-03-09T04:07:35.502Z,73.33
2019-03-09T04:08:35.480Z,72.85
2019-03-09T04:09:35.393Z,73.04
2019-03-09T04:10:35.333Z,72.28
2019-03-09T04:11:35.276Z,72.47
2019-03-09T04:12:35.230Z,71.81
2019-03-09T04:13:35.222Z,72.00
2019-03-09T04:14:35.130Z,71.23
2019-03-09T04:15:35.059Z,71.04
2019-03-09T04:16:35.017Z,71.04
2019-03-09T04:17:34.952Z,71.23
2019-03-09T04:18:34.911Z,70.86
2019-03-09T04:19:34.886Z,70.76
2019-03-09T04:20:34.788Z,70.76
2019-03-09T04:21:34.759Z,70.76
2019-03-09T04:22:34.679Z,70.86
2019-03-09T04:23:34.633Z,69.91
2019-03-09T04:24:34.585Z,69.71
2019-03-09T04:25:34.523Z,70.10
2019-03-09T04:26:34.463Z,70.19
2019-03-09T04:27:34.394Z,69.71
2019-03-09T04:28:34.343Z,69.43
2019-03-09T04:29:34.315Z,69.75
2019-03-09T04:30:34.233Z,68.96
2019-03-09T04:31:34.184Z,69.27
2019-03-09T04:32:34.132Z,69.27
2019-03-09T04:33:34.061Z,68.61
2019-03-09T04:34:34.040Z,68.33
2019-03-09T04:35:33.967Z,68.52
2019-03-09T04:36:33.906Z,68.23
2019-03-09T04:37:33.848Z,68.61
2019-03-09T04:38:33.795Z,68.52
2019-03-09T04:39:33.761Z,67.85
2019-03-09T04:40:33.685Z,67.94
2019-03-09T04:41:33.635Z,67.66
2019-03-09T04:42:33.577Z,67.47
2019-03-09T04:43:33.518Z,67.38
2019-03-09T04:44:33.492Z,67.19
2019-03-09T04:45:33.411Z,67.00
2019-03-09T04:46:33.369Z,66.61
2019-03-09T04:47:33.299Z,66.33
2019-03-09T04:48:33.238Z,66.24
2019-03-09T04:49:33.208Z,66.52
2019-03-09T04:50:33.149Z,66.52
2019-03-09T04:51:33.077Z,66.14
2019-03-09T04:52:33.017Z,65.76
2019-03-09T04:53:32.967Z,65.95
2019-03-09T04:54:32.930Z,65.28
2019-03-09T04:55:32.856Z,65.19
2019-03-09T04:56:32.831Z,65.38
2019-03-09T04:57:32.779Z,65.00
2019-03-09T04:58:32.692Z,65.38
2019-03-09T04:59:32.674Z,65.38
2019-03-09T05:00:32.601Z,64.90
2019-03-09T05:01:32.534Z,64.81
2019-03-09T05:02:32.480Z,64.90
2019-03-09T05:03:32.426Z,64.81
2019-03-09T05:04:32.375Z,65.00
2019-03-09T05:05:32.328Z,64.90
2019-03-09T05:06:32.275Z,64.43
2019-03-09T05:07:32.223Z,64.14
2019-03-09T05:08:32.162Z,64.14
2019-03-09T05:09:32.104Z,64.05
2019-03-09T05:10:32.067Z,64.14
2019-03-09T05:11:31.989Z,64.14
2019-03-09T05:12:31.937Z,63.67
2019-03-09T05:13:31.873Z,63.29
2019-03-09T05:14:31.832Z,63.48
2019-03-09T05:15:31.801Z,63.39
2019-03-09T05:16:31.719Z,63.60
2019-03-09T05:17:31.679Z,63.70
2019-03-09T05:18:31.617Z,63.86
2019-03-09T05:19:31.550Z,63.29
2019-03-09T05:20:31.512Z,62.91
2019-03-09T05:21:31.435Z,63.01
2019-03-09T05:22:31.390Z,63.20
2019-03-09T05:23:31.324Z,63.01
2019-03-09T05:24:31.268Z,63.04
2019-03-09T05:25:31.254Z,63.04
2019-03-09T05:26:31.154Z,63.13
2019-03-09T05:27:31.099Z,63.23
2019-03-09T05:28:31.060Z,62.94
2019-03-09T05:29:31.011Z,63.04
2019-03-09T05:30:31.014Z,62.85
2019-03-09T05:31:30.894Z,62.56
2019-03-09T05:32:30.858Z,62.85
2019-03-09T05:33:30.781Z,63.13
2019-03-09T05:34:30.742Z,62.75
2019-03-09T05:35:30.706Z,62.65
2019-03-09T05:36:30.611Z,62.56
2019-03-09T05:37:30.555Z,62.65
2019-03-09T05:38:30.516Z,62.75
2019-03-09T05:39:30.458Z,62.75
2019-03-09T05:40:30.450Z,62.85
2019-03-09T05:41:30.373Z,62.65
2019-03-09T05:42:30.291Z,62.75
2019-03-09T05:43:30.240Z,62.85
2019-03-09T05:44:30.192Z,62.56
2019-03-09T05:45:30.113Z,62.65
2019-03-09T05:46:30.091Z,62.85
2019-03-09T05:47:30.044Z,63.04
2019-03-09T05:48:29.950Z,63.23
2019-03-09T05:49:29.910Z,63.51
2019-03-09T05:50:29.845Z,63.51
2019-03-09T05:51:29.827Z,64.53
2019-03-09T05:52:29.738Z,65.19
2019-03-09T05:53:29.703Z,65.47
2019-03-09T05:54:29.614Z,65.41
2019-03-09T05:55:29.561Z,65.67
2019-03-09T05:56:29.569Z,65.57
2019-03-09T05:57:29.468Z,65.67
2019-03-09T05:58:29.409Z,65.57
2019-03-09T05:59:29.371Z,65.67
2019-03-09T06:00:29.312Z,66.05
2019-03-09T06:01:29.294Z,66.05
2019-03-09T06:02:29.188Z,66.61
2019-03-09T06:03:29.151Z,66.71
2019-03-09T06:04:29.094Z,66.52
2019-03-09T06:05:29.013Z,66.52
2019-03-09T06:06:28.985Z,66.52
2019-03-09T06:07:28.900Z,66.71
2019-03-09T06:08:28.856Z,66.80
2019-03-09T06:09:28.795Z,66.71
2019-03-09T06:10:28.753Z,66.90
2019-03-09T06:11:28.709Z,66.80
2019-03-09T06:12:28.637Z,66.61
2019-03-09T06:13:28.571Z,66.52
2019-03-09T06:14:28.514Z,66.90
2019-03-09T06:15:28.467Z,66.61
2019-03-09T06:16:28.437Z,66.24
2019-03-09T06:17:31.861Z,66.61
2019-03-09T06:18:28.289Z,66.33
2019-03-09T06:19:28.260Z,66.24
2019-03-09T06:20:28.198Z,66.05
2019-03-09T06:21:28.157Z,66.14
2019-03-09T06:22:28.080Z,66.24
2019-03-09T06:23:28.024Z,66.05
2019-03-09T06:24:27.963Z,66.14
2019-03-09T06:25:27.909Z,66.14
2019-03-09T06:26:27.884Z,66.24
2019-03-09T06:27:27.816Z,65.95
2019-03-09T06:28:27.766Z,65.86
2019-03-09T06:29:27.689Z,66.24
2019-03-09T06:30:27.645Z,66.05
2019-03-09T06:31:27.606Z,66.33
2019-03-09T06:32:27.537Z,65.86
2019-03-09T06:33:27.467Z,66.05
2019-03-09T06:34:27.425Z,65.38
2019-03-09T06:35:27.364Z,65.67
2019-03-09T06:36:27.371Z,65.57
2019-03-09T06:37:27.252Z,65.57
2019-03-09T06:38:27.201Z,65.47
2019-03-09T06:39:27.138Z,65.47
2019-03-09T06:40:27.101Z,65.57
2019-03-09T06:41:27.031Z,65.19
2019-03-09T06:42:26.999Z,65.67
2019-03-09T06:43:26.924Z,65.86
2019-03-09T06:44:26.860Z,65.76
2019-03-09T06:45:26.805Z,65.47
2019-03-09T06:46:26.761Z,65.47
2019-03-09T06:47:26.732Z,65.47
2019-03-09T06:48:26.647Z,65.38
2019-03-09T06:49:26.594Z,65.38
2019-03-09T06:50:26.536Z,65.28
2019-03-09T06:51:26.489Z,65.67
2019-03-09T06:52:26.456Z,65.47
2019-03-09T06:53:26.400Z,67.09
2019-03-09T06:54:26.324Z,67.19
2019-03-09T06:55:26.271Z,66.42
2019-03-09T06:56:26.214Z,66.14
2019-03-09T06:57:26.174Z,66.42
2019-03-09T06:58:26.100Z,66.36
2019-03-09T06:59:26.040Z,66.27
2019-03-09T07:00:26.008Z,65.99
2019-03-09T07:01:25.942Z,66.17
2019-03-09T07:02:25.903Z,67.41
2019-03-09T07:03:25.827Z,66.84
2019-03-09T07:04:25.770Z,66.94
2019-03-09T07:05:25.721Z,67.41
2019-03-09T07:06:25.674Z,66.84
2019-03-09T07:07:25.634Z,67.41
2019-03-09T07:08:25.560Z,67.69
2019-03-09T07:09:25.496Z,67.60
2019-03-09T07:10:25.451Z,67.32
2019-03-09T07:11:25.397Z,67.69
2019-03-09T07:12:25.362Z,67.41
2019-03-09T07:13:25.282Z,67.22
2019-03-09T07:14:25.226Z,67.41
2019-03-09T07:15:25.167Z,67.41
2019-03-09T07:16:25.124Z,67.32
2019-03-09T07:17:25.089Z,67.32
2019-03-09T07:18:25.001Z,67.50
2019-03-09T07:19:24.951Z,67.41
2019-03-09T07:20:24.900Z,67.69
2019-03-09T07:21:24.843Z,68.93
2019-03-09T07:22:24.812Z,68.74
2019-03-09T07:23:24.738Z,69.12
2019-03-09T07:24:24.684Z,68.65
2019-03-09T07:25:24.628Z,68.74
2019-03-09T07:26:24.570Z,69.31
2019-03-09T07:27:24.550Z,69.02
2019-03-09T07:28:24.463Z,69.21
2019-03-09T07:29:24.416Z,68.36
2019-03-09T07:30:24.356Z,68.36
2019-03-09T07:31:24.318Z,69.60
2019-03-09T07:32:24.268Z,71.31
2019-03-09T07:33:24.190Z,70.93
2019-03-09T07:34:24.159Z,70.93
2019-03-09T07:35:24.080Z,71.22
2019-03-09T07:36:24.032Z,71.22
2019-03-09T07:37:24.006Z,70.54
2019-03-09T07:38:23.929Z,70.36
2019-03-09T07:39:23.869Z,71.88
2019-03-09T07:40:23.811Z,71.34
2019-03-09T07:41:23.761Z,71.53
2019-03-09T07:42:23.739Z,71.06
2019-03-09T07:43:23.673Z,71.15
2019-03-09T07:44:23.593Z,71.82
2019-03-09T07:45:23.547Z,71.53
2019-03-09T07:46:23.492Z,71.25
2019-03-09T07:47:23.426Z,71.72
2019-03-09T07:48:23.407Z,71.82
2019-03-09T07:49:23.323Z,71.63
2019-03-09T07:50:23.274Z,71.53
2019-03-09T07:51:23.222Z,71.82
2019-03-09T07:52:23.157Z,71.91
2019-03-09T07:53:23.135Z,73.06
2019-03-09T07:54:23.058Z,74.29
2019-03-09T07:55:23.007Z,74.20
2019-03-09T07:56:22.976Z,74.96
2019-03-09T07:57:22.907Z,75.15
2019-03-09T07:58:22.865Z,73.72
2019-03-09T07:59:22.798Z,74.48
2019-03-09T08:00:22.743Z,74.67
2019-03-09T08:01:24.054Z,74.29
2019-03-09T08:02:22.629Z,73.44
2019-03-09T08:03:22.609Z,73.82
2019-03-09T08:04:22.519Z,73.82
2019-03-09T08:05:22.469Z,76.10
2019-03-09T08:06:22.411Z,76.96
2019-03-09T08:07:22.358Z,77.24
2019-03-09T08:08:22.335Z,77.05
2019-03-09T08:09:22.251Z,76.48
2019-03-09T08:10:22.202Z,76.01
2019-03-09T08:11:22.144Z,77.05
2019-03-09T08:12:24.044Z,77.15
2019-03-09T08:13:22.059Z,77.24
2019-03-09T08:14:21.978Z,77.15
2019-03-09T08:15:21.924Z,77.72
2019-03-09T08:16:21.874Z,76.76
2019-03-09T08:17:21.842Z,78.29
2019-03-09T08:18:21.798Z,77.72
2019-03-09T08:19:21.739Z,78.67
2019-03-09T08:20:21.670Z,78.38
2019-03-09T08:21:21.617Z,77.81
2019-03-09T08:22:21.549Z,78.10
2019-03-09T08:23:21.528Z,78.48
2019-03-09T08:24:21.453Z,78.86
2019-03-09T08:25:21.391Z,78.38
2019-03-09T08:26:21.335Z,77.72
2019-03-09T08:27:21.289Z,78.67
2019-03-09T08:28:21.256Z,80.38
2019-03-09T08:29:21.186Z,80.66
2019-03-09T08:30:21.131Z,79.62
2019-03-09T08:31:21.124Z,81.43
2019-03-09T08:32:21.019Z,81.05
2019-03-09T08:33:20.995Z,80.38
2019-03-09T08:34:20.938Z,81.24
2019-03-09T08:35:20.874Z,80.86
2019-03-09T08:36:20.794Z,79.91
2019-03-09T08:37:20.746Z,81.24
2019-03-09T08:38:20.684Z,81.71
2019-03-09T08:39:20.679Z,81.62
2019-03-09T08:40:20.583Z,81.05
2019-03-09T08:41:20.535Z,81.71
2019-03-09T08:42:20.497Z,80.10
2019-03-09T08:43:20.425Z,79.91
2019-03-09T08:44:20.410Z,81.05
2019-03-09T08:45:20.323Z,81.14
2019-03-09T08:46:20.273Z,80.38
2019-03-09T08:47:20.222Z,80.86
2019-03-09T08:48:20.156Z,80.47
2019-03-09T08:49:20.123Z,81.05
2019-03-09T08:50:20.044Z,80.86
2019-03-09T08:51:20.074Z,80.10
2019-03-09T08:52:19.934Z,81.05
2019-03-09T08:53:19.879Z,81.24
2019-03-09T08:54:19.861Z,81.71
2019-03-09T08:55:19.782Z,82.00
2019-03-09T08:56:19.717Z,81.14
2019-03-09T08:57:19.661Z,81.81
2019-03-09T08:58:19.613Z,81.33
2019-03-09T08:59:19.595Z,81.05
2019-03-09T09:00:19.508Z,81.05
2019-03-09T09:01:19.456Z,80.76
2019-03-09T09:02:19.423Z,81.71
2019-03-09T09:03:19.347Z,81.52
2019-03-09T09:04:19.309Z,82.09
2019-03-09T09:05:19.237Z,81.33
2019-03-09T09:06:19.252Z,81.71
2019-03-09T09:07:19.132Z,81.90
2019-03-09T09:08:19.083Z,82.48
2019-03-09T09:09:19.052Z,82.00
2019-03-09T09:10:18.982Z,80.95
2019-03-09T09:11:18.913Z,81.05
2019-03-09T09:12:18.860Z,82.00
2019-03-09T09:13:18.807Z,82.09
2019-03-09T09:14:18.785Z,82.00
2019-03-09T09:15:18.695Z,83.14
2019-03-09T09:16:18.643Z,81.71
2019-03-09T09:17:18.589Z,82.76
2019-03-09T09:18:18.532Z,81.43
2019-03-09T09:19:18.522Z,82.51
2019-03-09T09:20:18.432Z,82.14
2019-03-09T09:21:18.381Z,83.18
2019-03-09T09:22:18.317Z,81.95
2019-03-09T09:23:18.263Z,82.14
2019-03-09T09:24:18.263Z,82.04
2019-03-09T09:25:18.158Z,82.04
2019-03-09T09:26:18.111Z,82.04
2019-03-09T09:27:18.054Z,82.61
2019-03-09T09:28:17.995Z,83.56
2019-03-09T09:29:17.969Z,82.90
2019-03-09T09:30:17.895Z,82.04
2019-03-09T09:31:17.834Z,83.85
2019-03-09T09:32:17.781Z,82.51
2019-03-09T09:33:17.740Z,82.61
2019-03-09T09:34:17.701Z,82.14
2019-03-09T09:35:17.626Z,82.80
2019-03-09T09:36:17.571Z,82.42
2019-03-09T09:37:17.515Z,81.76
2019-03-09T09:38:17.466Z,82.51
2019-03-09T09:39:17.436Z,82.51
2019-03-09T09:40:17.362Z,84.04
2019-03-09T09:41:17.307Z,83.94
2019-03-09T09:42:17.251Z,82.23
2019-03-09T09:43:17.189Z,83.75
2019-03-09T09:44:17.167Z,82.70
2019-03-09T09:45:17.088Z,82.90
2019-03-09T09:46:17.049Z,83.09
2019-03-09T09:47:16.980Z,83.18
2019-03-09T09:48:16.925Z,84.04
2019-03-09T09:49:16.901Z,82.61
2019-03-09T09:50:16.882Z,83.18
2019-03-09T09:51:16.768Z,82.51
2019-03-09T09:52:16.713Z,82.80
2019-03-09T09:53:16.659Z,83.28
2019-03-09T09:54:16.634Z,83.56
2019-03-09T09:55:16.560Z,82.70
2019-03-09T09:56:16.501Z,81.98
2019-03-09T09:57:16.441Z,82.27
2019-03-09T09:58:16.394Z,82.56
2019-03-09T09:59:16.382Z,81.13
2019-03-09T10:00:16.281Z,82.08
2019-03-09T10:01:16.242Z,81.23
2019-03-09T10:02:16.179Z,82.46
2019-03-09T10:03:16.116Z,82.56
2019-03-09T10:04:16.099Z,82.46
2019-03-09T10:05:16.049Z,82.46
2019-03-09T10:06:15.962Z,81.51
2019-03-09T10:07:15.916Z,81.89
2019-03-09T10:08:15.869Z,82.08
2019-03-09T10:09:15.806Z,82.37
2019-03-09T10:10:15.786Z,81.89
2019-03-09T10:11:15.690Z,82.75
2019-03-09T10:12:15.646Z,82.08
2019-03-09T10:13:15.592Z,82.18
2019-03-09T10:14:15.533Z,81.32
2019-03-09T10:15:15.507Z,82.21
2019-03-09T10:16:15.430Z,82.46
2019-03-09T10:17:15.377Z,81.55
2019-03-09T10:18:15.326Z,82.31
2019-03-09T10:19:15.274Z,81.93
2019-03-09T10:20:15.244Z,82.12
2019-03-09T10:21:15.167Z,82.79
2019-03-09T10:22:15.114Z,81.41
2019-03-09T10:23:15.064Z,81.32
2019-03-09T10:24:15.006Z,82.65
2019-03-09T10:25:14.976Z,81.46
2019-03-09T10:26:14.899Z,81.74
2019-03-09T10:27:14.847Z,82.03
2019-03-09T10:28:14.793Z,82.31
2019-03-09T10:29:14.743Z,83.26
2019-03-09T10:30:14.714Z,81.55
2019-03-09T10:31:14.636Z,83.17
2019-03-09T10:32:14.594Z,81.36
2019-03-09T10:33:14.532Z,82.21
2019-03-09T10:34:14.470Z,82.50
2019-03-09T10:35:14.449Z,82.79
2019-03-09T10:36:14.373Z,81.26
2019-03-09T10:37:14.313Z,82.12
2019-03-09T10:38:14.272Z,82.60
2019-03-09T10:39:14.209Z,82.21
2019-03-09T10:40:14.222Z,83.36
2019-03-09T10:41:14.108Z,82.21
2019-03-09T10:42:14.047Z,82.50
2019-03-09T10:43:13.997Z,81.65
2019-03-09T10:44:13.943Z,82.12
2019-03-09T10:45:13.897Z,81.55
2019-03-09T10:46:13.858Z,81.17
2019-03-09T10:47:13.833Z,81.46
2019-03-09T10:48:13.735Z,81.55
2019-03-09T10:49:13.679Z,81.17
2019-03-09T10:50:13.632Z,81.55
2019-03-09T10:51:13.607Z,81.30
2019-03-09T10:52:13.530Z,81.40
2019-03-09T10:53:13.481Z,81.12
2019-03-09T10:54:13.422Z,81.30
2019-03-09T10:55:13.360Z,81.68
2019-03-09T10:56:13.334Z,81.02
2019-03-09T10:57:13.266Z,80.92
2019-03-09T10:58:13.208Z,80.35
2019-03-09T10:59:13.154Z,81.59
2019-03-09T11:00:13.102Z,81.21
2019-03-09T11:01:13.079Z,80.64
2019-03-09T11:02:13.008Z,80.54
2019-03-09T11:03:12.949Z,80.83
2019-03-09T11:04:12.901Z,80.16
2019-03-09T11:05:12.856Z,81.30
2019-03-09T11:06:12.820Z,80.35
2019-03-09T11:07:12.734Z,80.73
2019-03-09T11:08:12.692Z,79.97
2019-03-09T11:09:12.651Z,81.40
2019-03-09T11:10:12.582Z,81.49
2019-03-09T11:11:12.565Z,80.16
2019-03-09T11:12:12.475Z,80.64
2019-03-09T11:13:12.423Z,80.16
2019-03-09T11:14:12.375Z,80.92
2019-03-09T11:15:12.317Z,80.64
2019-03-09T11:16:12.305Z,80.83
2019-03-09T11:17:12.217Z,81.49
2019-03-09T11:18:12.168Z,80.54
2019-03-09T11:19:12.115Z,80.68
2019-03-09T11:20:12.060Z,81.73
2019-03-09T11:21:12.042Z,80.58
2019-03-09T11:22:11.954Z,80.77
2019-03-09T11:23:11.911Z,80.20
2019-03-09T11:24:11.864Z,81.35
2019-03-09T11:25:11.801Z,80.20
2019-03-09T11:26:11.779Z,80.30
2019-03-09T11:27:11.702Z,80.30
2019-03-09T11:28:11.670Z,79.72
2019-03-09T11:29:11.589Z,79.72
2019-03-09T11:30:11.548Z,80.68
2019-03-09T11:31:11.510Z,79.63
2019-03-09T11:32:11.454Z,80.01
2019-03-09T11:33:11.391Z,80.11
2019-03-09T11:34:11.334Z,80.11
2019-03-09T11:35:11.296Z,80.20
2019-03-09T11:36:11.255Z,80.49
2019-03-09T11:37:11.185Z,79.72
2019-03-09T11:38:11.126Z,79.82
2019-03-09T11:39:11.061Z,79.91
2019-03-09T11:40:11.026Z,79.63
2019-03-09T11:41:18.769Z,79.82
2019-03-09T11:42:10.917Z,80.39
2019-03-09T11:43:10.870Z,79.82
2019-03-09T11:44:10.815Z,80.30
2019-03-09T11:45:10.763Z,80.11
2019-03-09T11:46:10.708Z,79.35
2019-03-09T11:47:10.684Z,79.91
2019-03-09T11:48:10.605Z,79.53
2019-03-09T11:49:10.554Z,79.77
2019-03-09T11:50:10.507Z,79.48
2019-03-09T11:51:10.448Z,79.86
2019-03-09T11:52:19.553Z,79.10
2019-03-09T11:53:10.349Z,78.91
2019-03-09T11:54:10.301Z,79.28
2019-03-09T11:55:10.251Z,79.00
2019-03-09T11:56:10.198Z,78.72
2019-03-09T11:57:10.164Z,79.48
2019-03-09T11:58:10.092Z,78.85
2019-03-09T11:59:10.069Z,78.75
2019-03-09T12:00:09.992Z,78.28
2019-03-09T12:01:09.934Z,78.37
2019-03-09T12:02:09.918Z,78.47
2019-03-09T12:03:09.839Z,79.43
2019-03-09T12:04:09.775Z,77.70
2019-03-09T12:05:09.727Z,77.76
2019-03-09T12:06:09.687Z,78.37
2019-03-09T12:07:09.644Z,79.52
2019-03-09T12:08:09.581Z,78.94
2019-03-09T12:09:09.514Z,78.33
2019-03-09T12:10:09.474Z,78.94
2019-03-09T12:11:09.416Z,78.75
2019-03-09T12:12:09.384Z,79.71
2019-03-09T12:13:09.324Z,78.91
2019-03-09T12:14:09.334Z,79.28
2019-03-09T12:15:09.219Z,79.04
2019-03-09T12:16:09.180Z,78.09
2019-03-09T12:17:12.650Z,78.85
2019-03-09T12:18:09.101Z,78.09
2019-03-09T12:19:09.005Z,78.28
2019-03-09T12:20:08.964Z,77.99
2019-03-09T12:21:08.914Z,77.89
2019-03-09T12:22:08.883Z,78.09
2019-03-09T12:23:08.813Z,77.99
2019-03-09T12:24:17.456Z,77.51
2019-03-09T12:25:08.716Z,78.56
2019-03-09T12:26:08.646Z,78.18
2019-03-09T12:27:08.616Z,78.75
2019-03-09T12:28:08.578Z,79.04
2019-03-09T12:29:08.503Z,78.47
2019-03-09T12:30:08.446Z,78.37
2019-03-09T12:31:08.404Z,77.89
2019-03-09T12:32:08.372Z,77.61
2019-03-09T12:33:08.305Z,78.66
2019-03-09T12:34:08.243Z,79.28
2019-03-09T12:35:08.189Z,79.57
2019-03-09T12:36:08.136Z,79.67
2019-03-09T12:37:08.111Z,79.00
2019-03-09T12:38:08.038Z,79.96
2019-03-09T12:39:07.989Z,80.20
2019-03-09T12:40:07.927Z,80.39
2019-03-09T12:41:07.889Z,79.91
2019-03-09T12:42:07.827Z,81.06
2019-03-09T12:43:07.802Z,80.87
2019-03-09T12:44:07.756Z,81.63
2019-03-09T12:45:07.682Z,81.73
2019-03-09T12:46:07.620Z,82.24
2019-03-09T12:47:07.571Z,80.62
2019-03-09T12:48:07.547Z,81.29
2019-03-09T12:49:07.468Z,81.01
2019-03-09T12:50:07.432Z,80.43
2019-03-09T12:51:07.386Z,80.57
2019-03-09T12:52:07.310Z,80.47